Time;durP1;ratioP1;P1;durP2;ratioP2;P2;SDS_P1;SDS_P2;PMS_P1;PMS_P2;Temp;Humidity;BMP_temperature;BMP_pressure;BME280_temperature;BME280_humidity;BME280_pressure;Samples;Min_cycle;Max_cycle;Signal;HPM_P1;HPM_P2
2023/07/30 00:00:00;;;;;;;5.80;2.37;;;18.90;94.90;;;18.80;83.82;97401.50;4941486;29;20508;-77
2023/07/30 00:02:27;;;;;;;5.87;2.40;;;18.80;95.50;;;19.00;83.75;97427.13;4928847;29;20468;-77
2023/07/30 00:04:54;;;;;;;2.63;2.40;;;18.80;95.30;;;18.90;84.31;97433.44;4938514;29;20574;-78
2023/07/30 00:07:21;;;;;;;3.50;3.00;;;18.70;95.70;;;18.91;84.34;97437.81;4931228;29;20464;-78
2023/07/30 00:09:49;;;;;;;2.53;2.30;;;18.70;96.10;;;18.90;84.47;97433.44;4935981;29;21701;-77
2023/07/30 00:12:16;;;;;;;2.67;2.47;;;18.70;96.00;;;18.87;84.51;97425.78;4937968;29;20960;-76
2023/07/30 00:14:45;;;;;;;2.53;2.33;;;18.70;96.20;;;18.95;84.66;97444.34;4931987;29;20474;-77
2023/07/30 00:17:12;;;;;;;2.80;2.50;;;18.80;96.00;;;19.00;84.35;97439.97;4932083;29;20495;-77
2023/07/30 00:19:39;;;;;;;2.80;2.40;;;18.90;95.70;;;18.97;84.53;97447.63;4932530;28;20462;-77
2023/07/30 00:22:07;;;;;;;2.83;2.60;;;18.80;95.70;;;19.01;84.51;97455.28;4940195;29;20834;-76
2023/07/30 00:24:34;;;;;;;2.40;2.20;;;18.90;95.70;;;18.96;85.02;97470.63;4930499;29;20480;-77
2023/07/30 00:27:01;;;;;;;2.73;2.53;;;18.90;95.80;;;19.00;84.68;97470.06;4934336;29;20487;-77
2023/07/30 00:29:28;;;;;;;2.97;2.70;;;18.90;95.80;;;19.03;84.80;97467.59;4923997;29;20518;-79
2023/07/30 00:31:57;;;;;;;3.10;2.77;;;18.90;96.10;;;19.15;83.85;97464.50;4922557;29;20475;-77
2023/07/30 00:34:24;;;;;;;2.63;2.40;;;18.90;95.70;;;19.17;83.79;97465.03;4914974;29;20538;-78
2023/07/30 00:36:51;;;;;;;5.13;2.60;;;19.00;95.50;;;19.10;83.59;97442.66;4918716;29;20466;-78
2023/07/30 00:39:18;;;;;;;2.83;2.50;;;19.00;95.40;;;19.18;83.33;97455.72;4937476;29;20537;-78
2023/07/30 00:41:46;;;;;;;2.37;2.17;;;19.10;95.00;;;19.36;82.71;97467.09;4933826;29;20466;-79
2023/07/30 00:44:13;;;;;;;2.43;2.23;;;19.10;94.80;;;19.46;82.15;97464.25;4931106;29;20488;-78
2023/07/30 00:46:41;;;;;;;2.97;2.70;;;19.30;94.50;;;19.36;82.55;97467.91;4938276;29;20475;-76
2023/07/30 00:49:10;;;;;;;2.97;2.43;;;19.30;94.40;;;19.23;82.74;97452.94;4940779;29;20465;-78
2023/07/30 00:51:38;;;;;;;3.03;2.73;;;19.20;94.40;;;19.08;83.61;97472.22;4936732;29;20468;-78
2023/07/30 00:54:05;;;;;;;2.53;2.33;;;19.10;94.70;;;18.98;83.12;97451.19;4937880;29;21066;-77
2023/07/30 00:56:32;;;;;;;2.83;2.23;;;19.10;94.60;;;18.89;84.38;97467.41;4931642;29;20457;-77
2023/07/30 00:58:59;;;;;;;2.53;2.33;;;18.90;94.90;;;19.00;84.35;97467.34;4944068;29;20881;-76
2023/07/30 01:01:27;;;;;;;2.60;2.40;;;18.90;95.10;;;18.86;84.91;97467.94;4930361;29;20452;-78
2023/07/30 01:03:54;;;;;;;2.97;2.67;;;18.80;95.40;;;19.14;83.11;97465.59;4944576;29;20645;-79
2023/07/30 01:06:23;;;;;;;3.83;2.40;;;19.00;95.10;;;19.02;83.72;97457.75;4953441;29;20455;-79
2023/07/30 01:08:50;;;;;;;3.40;2.20;;;18.90;95.10;;;18.95;84.50;97451.72;4950227;29;20511;-77
2023/07/30 01:11:19;;;;;;;2.20;2.00;;;18.90;95.10;;;18.96;84.62;97453.41;4931814;29;20918;-78
2023/07/30 01:13:47;;;;;;;2.63;2.40;;;18.90;95.60;;;19.07;84.33;97454.16;4927368;29;20872;-76
2023/07/30 01:16:14;;;;;;;2.27;2.17;;;18.90;95.80;;;19.19;84.93;97467.50;4927329;29;20948;-76
2023/07/30 01:18:41;;;;;;;2.90;2.70;;;19.00;96.30;;;18.95;85.98;97457.22;4910469;29;20976;-77
2023/07/30 01:21:10;;;;;;;2.70;2.30;;;18.90;96.20;;;18.89;87.52;97464.66;4918507;29;20513;-76
2023/07/30 01:23:37;;;;;;;7.20;2.70;;;18.90;97.50;;;18.82;91.25;97466.88;4915734;29;20878;-77
2023/07/30 01:26:11;;;;;;;4.90;2.47;;;18.80;99.90;;;18.62;94.04;97451.38;4907536;29;20539;-78
2023/07/30 01:28:44;;;;;;;4.10;3.70;;;18.70;99.90;;;18.56;96.37;97461.53;4923133;29;20957;-78
2023/07/30 01:31:17;;;;;;;4.60;4.10;;;18.50;99.90;;;18.16;98.41;97425.09;4928320;29;20481;-78
2023/07/30 01:33:48;;;;;;;3.83;3.50;;;18.40;99.90;;;18.30;97.96;97452.63;4926403;29;20470;-77
2023/07/30 01:36:17;;;;;;;3.40;3.10;;;18.20;99.90;;;18.36;97.18;97452.34;4924984;29;20547;-78
2023/07/30 01:38:45;;;;;;;3.90;3.10;;;18.20;99.90;;;18.27;97.13;97449.38;4934356;29;20472;-77
2023/07/30 01:41:13;;;;;;;3.63;3.30;;;18.10;99.90;;;18.27;98.32;97440.34;4929191;29;20469;-79
2023/07/30 01:43:40;;;;;;;3.90;3.27;;;18.10;99.90;;;18.29;98.08;97431.88;4913823;29;20543;-79
2023/07/30 01:46:07;;;;;;;3.83;3.40;;;18.10;99.90;;;18.32;98.76;97440.34;4916323;29;20458;-79
2023/07/30 01:48:35;;;;;;;4.63;3.60;;;18.10;99.90;;;18.33;98.42;97436.50;4912971;29;20461;-79
2023/07/30 01:51:02;;;;;;;4.13;3.67;;;18.10;99.90;;;18.38;99.50;97439.19;4914225;29;20466;-79
2023/07/30 01:53:30;;;;;;;3.87;3.57;;;18.10;99.90;;;18.33;99.33;97443.88;4906384;29;20468;-78
2023/07/30 01:55:58;;;;;;;5.10;3.50;;;18.00;99.90;;;18.25;100.00;97418.75;4924723;29;20458;-77
2023/07/30 01:58:25;;;;;;;3.90;3.60;;;18.00;99.90;;;18.38;100.00;97430.19;4929089;29;20457;-78
2023/07/30 02:00:52;;;;;;;4.03;3.73;;;18.10;99.90;;;18.31;100.00;97433.22;4924337;29;20497;-77
2023/07/30 02:03:19;;;;;;;4.07;3.70;;;18.10;99.90;;;18.26;100.00;97425.88;4908590;29;20465;-78
2023/07/30 02:05:46;;;;;;;3.90;3.13;;;18.20;99.90;;;18.34;100.00;97413.53;4927060;28;20486;-78
2023/07/30 02:08:15;;;;;;;4.93;3.80;;;18.20;99.90;;;18.49;99.47;97433.69;4915215;29;20462;-78
2023/07/30 02:10:44;;;;;;;3.70;3.20;;;18.20;99.90;;;18.47;100.00;97424.97;4910710;29;20493;-78
2023/07/30 02:13:11;;;;;;;4.80;3.90;;;18.30;99.90;;;18.61;98.70;97434.19;4925684;29;20473;-78
2023/07/30 02:15:42;;;;;;;5.50;3.83;;;18.40;99.90;;;18.53;98.37;97423.81;4906460;29;20464;-78
2023/07/30 02:18:10;;;;;;;5.20;3.40;;;18.50;99.90;;;18.66;98.03;97419.66;4924044;29;20463;-78
2023/07/30 02:20:37;;;;;;;4.50;4.10;;;18.60;99.90;;;18.80;97.01;97441.72;4922928;29;20465;-77
2023/07/30 02:23:05;;;;;;;4.70;4.10;;;18.60;99.90;;;18.67;98.81;97438.50;4911378;29;20873;-77
2023/07/30 02:25:32;;;;;;;3.43;3.23;;;18.60;99.90;;;18.76;97.42;97446.13;4924675;29;20554;-78
2023/07/30 02:28:02;;;;;;;3.70;3.37;;;18.60;99.90;;;18.71;97.66;97443.41;4922314;29;20466;-78
2023/07/30 02:30:30;;;;;;;4.33;3.93;;;18.60;99.90;;;18.48;98.84;97413.72;4922638;29;20482;-78
2023/07/30 02:32:57;;;;;;;6.10;4.07;;;18.60;99.90;;;18.71;98.78;97448.88;4930229;29;20953;-79
2023/07/30 02:35:25;;;;;;;4.27;3.87;;;18.60;99.90;;;18.65;99.66;97451.66;4934921;29;20510;-78
2023/07/30 02:37:52;;;;;;;4.20;3.80;;;18.60;99.90;;;18.67;99.29;97451.38;4923981;29;20531;-78
2023/07/30 02:40:19;;;;;;;4.00;3.63;;;18.60;99.90;;;18.64;98.52;97452.75;4927913;29;20998;-79
2023/07/30 02:42:46;;;;;;;4.50;4.10;;;18.50;99.90;;;18.35;97.79;97417.91;4908586;29;20465;-80
2023/07/30 02:45:14;;;;;;;5.00;3.40;;;18.50;99.90;;;18.65;97.52;97448.91;4913377;29;20872;-79
2023/07/30 02:47:42;;;;;;;3.30;3.07;;;18.50;99.90;;;18.71;97.13;97449.72;4924180;29;20468;-78
2023/07/30 02:50:10;;;;;;;3.73;3.43;;;18.50;99.90;;;18.61;97.25;97442.38;4912796;29;20457;-79
2023/07/30 02:52:37;;;;;;;4.40;3.60;;;18.50;99.90;;;18.63;97.75;97448.38;4928056;29;20571;-78
2023/07/30 02:55:06;;;;;;;4.63;3.57;;;18.40;99.90;;;18.44;99.26;97433.72;4917341;29;20470;-78
2023/07/30 02:57:33;;;;;;;4.40;3.57;;;18.30;99.90;;;18.49;99.37;97437.22;4928477;29;20535;-78
2023/07/30 03:00:00;;;;;;;3.73;3.43;;;18.30;99.90;;;18.30;99.63;97431.59;4930993;29;20480;-77
2023/07/30 03:02:29;;;;;;;4.07;3.70;;;18.30;99.90;;;18.29;100.00;97440.91;4911495;29;20470;-77
2023/07/30 03:04:56;;;;;;;7.17;4.00;;;18.20;99.90;;;18.38;99.99;97443.88;4928144;29;20560;-77
2023/07/30 03:07:24;;;;;;;4.43;4.07;;;18.20;99.90;;;18.29;99.91;97445.53;4919465;29;20464;-78
2023/07/30 03:09:51;;;;;;;4.40;4.00;;;18.20;99.90;;;18.34;100.00;97464.66;4909201;29;20511;-79
2023/07/30 03:12:18;;;;;;;4.60;3.60;;;18.10;99.90;;;18.23;100.00;97455.66;4913524;29;20464;-78
2023/07/30 03:14:45;;;;;;;4.50;3.87;;;18.10;99.90;;;18.31;100.00;97466.03;4912717;28;20512;-78
2023/07/30 03:17:12;;;;;;;4.23;3.83;;;18.10;99.90;;;18.24;100.00;97473.72;4926378;29;20462;-78
2023/07/30 03:19:41;;;;;;;5.00;4.50;;;18.00;99.90;;;18.22;100.00;97475.91;4930268;29;20464;-78
2023/07/30 03:22:08;;;;;;;3.87;3.50;;;18.00;99.90;;;18.21;100.00;97472.38;4920918;29;20976;-77
2023/07/30 03:24:35;;;;;;;4.10;3.80;;;18.00;99.90;;;18.20;100.00;97481.69;4933004;29;20503;-76
2023/07/30 03:27:03;;;;;;;4.70;4.30;;;17.90;99.90;;;17.78;100.00;97458.25;4926005;29;20465;-77
2023/07/30 03:29:30;;;;;;;3.97;3.67;;;17.90;99.90;;;17.67;100.00;97430.13;4927393;29;20966;-77
2023/07/30 03:31:57;;;;;;;4.27;3.77;;;17.80;99.90;;;17.99;100.00;97481.69;4933724;29;20446;-76
2023/07/30 03:34:24;;;;;;;5.00;3.70;;;17.80;99.90;;;18.04;100.00;97471.84;4921746;29;20529;-76
2023/07/30 03:36:53;;;;;;;3.43;3.13;;;17.80;99.90;;;17.88;100.00;97460.13;4910723;29;20479;-75
2023/07/30 03:39:20;;;;;;;4.13;3.73;;;17.70;99.90;;;17.95;100.00;97475.13;4920423;29;20448;-78
2023/07/30 03:41:47;;;;;;;4.20;3.90;;;17.70;99.90;;;17.91;100.00;97459.56;4918403;29;20471;-77
2023/07/30 03:44:15;;;;;;;4.23;3.93;;;17.70;99.90;;;18.00;100.00;97482.50;4938548;28;20502;-77
2023/07/30 03:46:42;;;;;;;4.00;3.70;;;17.60;99.90;;;17.99;100.00;97491.81;4929764;29;20519;-76
2023/07/30 03:49:09;;;;;;;5.70;4.63;;;17.70;99.90;;;17.95;100.00;97479.78;4931796;29;20548;-77
2023/07/30 03:51:38;;;;;;;4.87;4.50;;;17.60;99.90;;;17.80;100.00;97470.50;4946977;29;20456;-76
2023/07/30 03:54:06;;;;;;;4.13;3.83;;;17.60;99.90;;;17.98;100.00;97490.19;4935533;29;20458;-77
2023/07/30 03:56:34;;;;;;;5.00;4.50;;;17.70;99.90;;;17.53;100.00;97433.44;4937508;29;20487;-78
2023/07/30 03:59:01;;;;;;;4.93;4.50;;;17.70;99.90;;;17.82;100.00;97479.28;4933202;29;20471;-77
2023/07/30 04:01:29;;;;;;;4.53;4.13;;;17.70;99.90;;;18.01;100.00;97499.72;4924830;29;20801;-77
2023/07/30 04:03:56;;;;;;;4.40;3.57;;;17.60;99.90;;;17.99;100.00;97500.00;4929847;29;20474;-77
2023/07/30 04:06:23;;;;;;;4.40;4.00;;;17.70;99.90;;;18.03;100.00;97503.84;4933112;28;20485;-77
2023/07/30 04:08:50;;;;;;;4.60;4.10;;;17.70;99.90;;;17.88;100.00;97480.06;4933024;29;20504;-77
2023/07/30 04:11:19;;;;;;;5.40;4.57;;;17.60;99.90;;;17.99;100.00;97500.00;4926832;29;20467;-77
2023/07/30 04:13:46;;;;;;;4.40;4.00;;;17.60;99.90;;;17.96;100.00;97490.44;4921148;29;20467;-78
2023/07/30 04:16:13;;;;;;;4.50;4.10;;;17.70;99.90;;;18.00;100.00;97496.19;4933305;29;20905;-81
2023/07/30 04:18:41;;;;;;;4.00;3.60;;;17.70;99.90;;;18.03;100.00;97494.81;4918033;29;20870;-79
2023/07/30 04:21:08;;;;;;;4.03;3.63;;;17.70;99.90;;;18.04;100.00;97494.56;4927631;29;20981;-79
2023/07/30 04:23:35;;;;;;;4.13;3.80;;;17.70;99.90;;;18.13;100.00;97503.00;4933386;29;20525;-79
2023/07/30 04:26:02;;;;;;;3.80;3.50;;;17.70;99.90;;;18.14;100.00;97503.84;4914206;29;20547;-78
2023/07/30 04:28:31;;;;;;;4.13;3.73;;;17.80;99.90;;;18.16;100.00;97502.44;4928978;29;20474;-78
2023/07/30 04:30:58;;;;;;;5.63;3.67;;;17.80;99.90;;;18.16;100.00;97499.72;4929695;29;20464;-78
2023/07/30 04:33:26;;;;;;;4.43;4.00;;;17.80;99.90;;;18.16;100.00;97496.16;4916359;29;20865;-79
2023/07/30 04:35:53;;;;;;;4.00;3.70;;;17.90;99.90;;;18.23;99.91;97504.88;4915481;29;20948;-78
2023/07/30 04:38:20;;;;;;;3.50;3.27;;;17.90;99.90;;;18.20;99.65;97508.19;4943382;29;20468;-78
2023/07/30 04:40:48;;;;;;;4.70;4.30;;;18.00;99.90;;;18.36;99.57;97509.75;4931641;29;20460;-77
2023/07/30 04:43:15;;;;;;;4.43;4.03;;;18.10;99.90;;;18.71;96.42;97509.06;4930316;29;20700;-77
2023/07/30 04:45:43;;;;;;;4.73;4.20;;;18.40;99.90;;;19.20;95.57;97530.19;4934423;29;20486;-77
2023/07/30 04:48:12;;;;;;;4.47;4.07;;;18.80;99.90;;;19.74;91.10;97521.28;4941065;29;20493;-77
2023/07/30 04:50:41;;;;;;;4.63;4.10;;;19.60;99.90;;;20.01;88.28;97528.19;4919474;29;20518;-78
2023/07/30 04:53:09;;;;;;;3.73;3.43;;;19.90;98.00;;;19.84;87.68;97531.34;4938896;29;20490;-78
2023/07/30 04:55:36;;;;;;;3.33;2.97;;;19.90;96.30;;;19.75;86.78;97531.94;4934975;29;21646;-77
2023/07/30 04:58:04;;;;;;;4.00;3.63;;;19.70;96.60;;;19.75;87.11;97528.41;4912183;29;20462;-79
2023/07/30 05:00:31;;;;;;;4.17;3.60;;;19.60;97.10;;;19.39;88.42;97524.03;4922613;29;20538;-78
2023/07/30 05:03:02;;;;;;;4.20;3.80;;;19.50;97.40;;;19.27;90.00;97518.09;4931282;29;20548;-79
2023/07/30 05:05:29;;;;;;;4.33;4.00;;;19.40;98.50;;;19.15;91.58;97526.66;4924344;29;21105;-78
2023/07/30 05:07:57;;;;;;;4.00;3.70;;;19.20;99.60;;;20.08;87.76;97525.94;4918436;29;20935;-77
2023/07/30 05:10:24;;;;;;;3.80;3.10;;;19.60;99.90;;;21.28;78.43;97522.53;4925485;29;20459;-79
2023/07/30 05:12:51;;;;;;;4.23;3.83;;;20.80;93.60;;;21.78;76.94;97525.63;4911863;29;20462;-78
2023/07/30 05:15:19;;;;;;;2.93;2.73;;;21.30;92.80;;;21.92;75.05;97524.84;4928301;29;20467;-78
2023/07/30 05:17:46;;;;;;;2.83;2.63;;;21.70;92.00;;;22.04;74.45;97536.16;4928383;29;20455;-78
2023/07/30 05:20:15;;;;;;;3.80;3.50;;;21.80;91.70;;;20.71;78.79;97529.59;4926340;29;20470;-76
2023/07/30 05:22:42;;;;;;;3.30;3.10;;;21.20;91.70;;;20.34;81.69;97539.38;4934225;29;20477;-77
2023/07/30 05:25:10;;;;;;;3.37;3.03;;;20.60;92.80;;;20.54;81.87;97549.28;4916367;29;20488;-77
2023/07/30 05:27:38;;;;;;;4.80;3.37;;;20.40;94.00;;;20.58;81.77;97552.25;4929221;29;20460;-77
2023/07/30 05:30:07;;;;;;;3.70;3.40;;;20.30;94.30;;;20.32;83.07;97558.03;4928761;29;20468;-77
2023/07/30 05:32:34;;;;;;;3.70;3.40;;;20.20;94.40;;;20.03;83.84;97561.63;4928808;29;20725;-77
2023/07/30 05:35:02;;;;;;;3.60;3.30;;;20.00;94.60;;;20.16;83.01;97571.09;4924408;29;20494;-77
2023/07/30 05:37:30;;;;;;;4.37;4.00;;;19.90;94.90;;;20.17;83.25;97567.25;4926714;29;20474;-76
2023/07/30 05:39:58;;;;;;;3.60;2.90;;;20.00;94.90;;;19.86;82.98;97531.88;4930035;29;20463;-78
2023/07/30 05:42:25;;;;;;;3.63;3.23;;;20.00;95.10;;;20.14;84.12;97585.09;4930909;29;20473;-78
2023/07/30 05:44:52;;;;;;;3.70;3.40;;;20.10;95.00;;;20.04;82.20;97527.63;4911493;29;20471;-77
2023/07/30 05:47:19;;;;;;;3.43;3.13;;;20.20;94.50;;;20.45;81.89;97560.06;4930936;29;20456;-78
2023/07/30 05:49:46;;;;;;;5.20;3.20;;;20.30;94.30;;;20.47;82.16;97565.28;4930834;29;20460;-77
2023/07/30 05:52:13;;;;;;;3.17;2.90;;;20.30;94.40;;;21.17;78.94;97574.88;4924422;29;20478;-78
2023/07/30 05:54:42;;;;;;;3.30;3.00;;;20.70;94.00;;;22.57;72.89;97571.81;4918117;29;20818;-77
2023/07/30 05:57:09;;;;;;;3.73;3.53;;;22.10;91.60;;;22.83;70.49;97569.38;4904971;29;20496;-77
2023/07/30 05:59:36;;;;;;;3.40;2.80;;;22.60;90.50;;;23.05;69.33;97570.56;4920411;29;20518;-78
2023/07/30 06:02:05;;;;;;;3.00;2.80;;;22.90;89.70;;;24.25;66.35;97572.19;4926571;29;20461;-77
2023/07/30 06:04:32;;;;;;;2.67;2.43;;;23.90;89.00;;;24.33;63.74;97571.41;4916347;29;20458;-77
2023/07/30 06:07:01;;;;;;;3.63;2.60;;;24.30;86.30;;;23.66;65.99;97578.59;4928639;29;20489;-77
2023/07/30 06:09:28;;;;;;;2.33;2.13;;;23.80;86.90;;;22.99;68.58;97577.31;4927847;29;20470;-76
2023/07/30 06:11:57;;;;;;;2.90;2.70;;;23.20;87.60;;;22.10;72.25;97574.59;4932553;29;20555;-77
2023/07/30 06:14:25;;;;;;;2.70;2.47;;;22.60;89.00;;;21.60;73.08;97592.38;4916337;29;20523;-77
2023/07/30 06:16:52;;;;;;;3.30;3.00;;;21.90;89.30;;;21.43;74.38;97584.69;4935846;29;20953;-77
2023/07/30 06:19:20;;;;;;;4.50;2.50;;;21.50;90.30;;;21.04;75.43;97592.91;4942227;28;20568;-77
2023/07/30 06:21:47;;;;;;;2.43;2.23;;;21.10;90.60;;;21.23;74.57;97570.94;4919171;29;20476;-77
2023/07/30 06:24:14;;;;;;;2.80;2.60;;;21.00;90.80;;;21.25;74.42;97567.91;4933549;29;20460;-79
2023/07/30 06:26:41;;;;;;;3.33;2.93;;;21.10;90.80;;;21.64;73.57;97579.69;4933727;29;20485;-74
2023/07/30 06:29:10;;;;;;;3.00;2.40;;;21.20;90.90;;;22.18;71.80;97571.94;4932958;29;20490;-74
2023/07/30 06:31:37;;;;;;;2.40;2.20;;;21.70;90.60;;;22.32;70.59;97560.94;4936074;29;20450;-75
2023/07/30 06:34:04;;;;;;;2.33;2.13;;;22.00;90.30;;;22.85;68.43;97580.91;4930734;29;20474;-74
2023/07/30 06:36:32;;;;;;;3.40;2.60;;;22.30;89.80;;;22.97;67.05;97574.03;4938880;29;20473;-73
2023/07/30 06:38:59;;;;;;;3.20;2.60;;;22.70;88.70;;;22.59;67.18;97580.56;4918109;29;20534;-73
2023/07/30 06:41:27;;;;;;;2.60;2.40;;;22.40;87.80;;;22.77;67.08;97582.44;4911173;29;20459;-74
2023/07/30 06:43:56;;;;;;;2.70;2.50;;;22.40;87.90;;;23.06;66.06;97594.22;4910139;29;20463;-75
2023/07/30 06:46:25;;;;;;;1.97;1.87;;;22.70;87.80;;;23.13;65.86;97594.63;4927189;29;20565;-76
2023/07/30 06:48:52;;;;;;;2.10;1.90;;;22.90;87.30;;;22.81;66.01;97588.13;4917043;29;20453;-86
2023/07/30 06:51:21;;;;;;;2.47;2.27;;;22.80;86.90;;;22.62;66.98;97607.50;4927911;29;20463;-81
2023/07/30 06:53:48;;;;;;;2.50;2.30;;;22.60;87.00;;;22.31;69.16;97592.34;4914491;29;20467;-82
2023/07/30 06:56:15;;;;;;;1.60;1.50;;;22.30;88.00;;;21.91;68.17;97600.19;4919967;29;20481;-81
2023/07/30 06:58:42;;;;;;;2.20;2.10;;;22.00;87.00;;;21.41;70.27;97604.22;4924400;29;21247;-80
2023/07/30 07:01:10;;;;;;;2.80;2.60;;;21.50;87.70;;;21.31;72.48;97587.88;4924713;29;20495;-81
2023/07/30 07:03:38;;;;;;;2.77;2.57;;;21.30;89.60;;;21.38;70.73;97618.53;4923306;29;20520;-82
2023/07/30 07:06:05;;;;;;;2.37;2.17;;;21.20;88.80;;;21.34;71.04;97603.78;4916932;29;20825;-83
2023/07/30 07:08:34;;;;;;;2.60;2.33;;;21.20;88.90;;;21.54;69.82;97607.34;4919765;29;20480;-82
2023/07/30 07:11:01;;;;;;;2.27;1.67;;;21.30;88.70;;;21.40;69.25;97610.81;4926305;29;20562;-82
2023/07/30 07:13:28;;;;;;;2.10;2.00;;;21.20;87.80;;;21.31;70.82;97609.88;4922403;29;20472;-82
2023/07/30 07:15:55;;;;;;;2.60;2.30;;;21.10;88.60;;;21.41;68.45;97631.69;4909690;29;20467;-83
2023/07/30 07:18:22;;;;;;;2.10;1.90;;;21.20;87.20;;;21.33;68.77;97618.63;4919093;29;21046;-80
2023/07/30 07:20:51;;;;;;;1.87;1.77;;;21.20;87.40;;;21.24;69.35;97626.72;4924566;29;20464;-85
2023/07/30 07:23:18;;;;;;;1.50;1.40;;;21.20;87.70;;;21.27;69.93;97630.78;4933722;29;20487;-79
2023/07/30 07:25:46;;;;;;;2.63;1.80;;;21.10;88.00;;;21.17;69.38;97632.56;4928728;29;20476;-83
2023/07/30 07:28:13;;;;;;;2.00;1.90;;;21.10;87.50;;;21.44;69.70;97620.09;4915393;29;20451;-81
2023/07/30 07:30:40;;;;;;;1.87;1.77;;;21.20;88.10;;;21.69;68.27;97615.38;4937199;29;20466;-79
2023/07/30 07:33:12;;;;;;;1.93;1.83;;;21.40;87.70;;;21.73;68.25;97616.41;4934785;29;20467;-81
2023/07/30 07:35:39;;;;;;;2.07;1.97;;;21.40;87.70;;;21.27;67.83;97571.19;4931174;29;20464;-81
2023/07/30 07:38:08;;;;;;;2.37;1.90;;;21.40;87.20;;;21.57;68.43;97612.22;4924739;29;20491;-81
2023/07/30 07:40:40;;;;;;;2.10;2.00;;;21.30;87.50;;;21.74;67.59;97593.28;4932693;29;20454;-79
2023/07/30 07:43:07;;;;;;;2.30;2.10;;;21.40;87.40;;;21.63;67.86;97575.31;4926672;29;20489;-80
2023/07/30 07:45:35;;;;;;;2.70;2.50;;;21.60;87.40;;;21.93;67.94;97603.47;4929441;29;20522;-81
2023/07/30 07:48:04;;;;;;;1.90;1.70;;;21.70;87.40;;;22.13;67.33;97598.72;4926202;29;20472;-81
2023/07/30 07:50:31;;;;;;;2.23;1.93;;;21.90;87.40;;;22.28;67.62;97614.13;4914065;29;20452;-79
2023/07/30 07:52:58;;;;;;;2.50;2.30;;;22.00;87.50;;;22.28;66.41;97598.47;4926509;29;20470;-78
2023/07/30 07:55:27;;;;;;;2.40;2.20;;;22.20;86.90;;;22.26;67.27;97608.94;4929513;29;20467;-78
2023/07/30 07:57:54;;;;;;;2.93;2.60;;;22.10;87.30;;;22.36;67.21;97610.69;4928627;29;20467;-80
2023/07/30 08:00:21;;;;;;;3.40;2.03;;;22.10;87.10;;;22.41;66.58;97618.06;4922170;29;20465;-79
2023/07/30 08:02:49;;;;;;;2.23;2.03;;;22.20;87.00;;;22.75;65.85;97614.13;4923816;29;20522;-81
2023/07/30 08:05:16;;;;;;;2.33;2.13;;;22.40;86.90;;;22.95;64.73;97614.84;4906627;29;20523;-80
2023/07/30 08:07:46;;;;;;;2.47;2.27;;;22.50;86.20;;;23.09;64.73;97606.56;4923298;29;20477;-81
2023/07/30 08:10:14;;;;;;;4.40;2.40;;;22.80;86.00;;;23.65;61.85;97610.03;4916906;29;20465;-81
2023/07/30 08:12:43;;;;;;;2.50;2.17;;;23.20;84.90;;;23.69;60.96;97604.72;4941755;29;20591;-76
2023/07/30 08:15:11;;;;;;;2.00;1.90;;;23.50;84.00;;;23.85;60.08;97607.91;4944609;29;20468;-78
2023/07/30 08:17:39;;;;;;;2.27;1.90;;;23.50;83.50;;;23.63;60.70;97613.09;4936765;29;20500;-79
2023/07/30 08:20:08;;;;;;;1.77;1.67;;;23.50;83.30;;;23.53;59.43;97590.47;4945302;29;20471;-79
2023/07/30 08:22:35;;;;;;;2.77;1.90;;;23.50;82.60;;;23.66;59.44;97617.19;4918002;29;20988;-79
2023/07/30 08:25:03;;;;;;;2.27;2.07;;;23.30;82.20;;;23.60;60.59;97612.94;4928856;29;20462;-80
2023/07/30 08:27:31;;;;;;;2.80;2.60;;;23.40;82.60;;;23.92;58.69;97611.06;4933954;29;20552;-78
2023/07/30 08:29:59;;;;;;;2.07;1.97;;;23.50;82.20;;;23.47;59.90;97603.56;4915304;29;20530;-80
2023/07/30 08:32:26;;;;;;;2.13;2.00;;;23.40;82.00;;;23.29;60.15;97602.59;4908896;29;20458;-80
2023/07/30 08:34:53;;;;;;;1.80;1.70;;;23.30;81.90;;;23.68;59.09;97603.09;4925274;29;20465;-81
2023/07/30 08:37:21;;;;;;;2.07;1.97;;;23.30;82.00;;;24.32;57.81;97605.66;4927098;29;20959;-78
2023/07/30 08:39:48;;;;;;;2.10;1.90;;;23.70;82.00;;;24.33;57.59;97601.75;4926766;29;20459;-78
2023/07/30 08:42:16;;;;;;;2.50;2.30;;;24.00;81.40;;;23.47;59.88;97598.03;4930106;29;20534;-79
2023/07/30 08:44:43;;;;;;;2.80;2.20;;;23.70;81.20;;;23.92;57.99;97545.66;4935708;29;20477;-80
2023/07/30 08:47:12;;;;;;;2.03;1.73;;;24.00;81.20;;;24.45;57.62;97608.63;4911587;29;20500;-79
2023/07/30 08:49:39;;;;;;;2.60;2.40;;;24.20;80.80;;;24.81;57.28;97609.63;4924225;29;20470;-79
2023/07/30 08:52:10;;;;;;;2.40;2.20;;;24.50;80.90;;;24.90;56.25;97611.28;4916571;29;20525;-82
2023/07/30 08:54:40;;;;;;;2.37;2.17;;;24.60;80.70;;;24.43;56.68;97610.91;4924336;29;20471;-78
2023/07/30 08:57:08;;;;;;;2.40;2.20;;;24.40;79.90;;;24.33;58.51;97612.78;4909483;29;20470;-78
2023/07/30 08:59:43;;;;;;;4.10;2.17;;;24.00;80.90;;;24.71;56.84;97566.53;4924112;29;20963;-72
2023/07/30 09:02:20;;;;;;;2.00;1.90;;;24.40;81.10;;;25.39;55.18;97598.56;4925917;29;20446;-77
2023/07/30 09:04:51;;;;;;;2.30;2.10;;;24.80;80.20;;;25.64;54.39;97608.03;4928350;29;20956;-76
2023/07/30 09:07:19;;;;;;;2.50;2.30;;;25.20;79.50;;;25.05;55.60;97612.00;4924623;29;20536;-74
2023/07/30 09:09:47;;;;;;;2.37;1.80;;;25.10;79.10;;;24.53;56.96;97583.03;4918784;29;20488;-76
2023/07/30 09:12:15;;;;;;;2.47;2.27;;;24.70;79.30;;;24.27;57.21;97602.22;4911579;29;20461;-77
2023/07/30 09:14:44;;;;;;;2.47;2.27;;;24.40;79.10;;;24.65;55.71;97609.25;4926339;29;20464;-84
2023/07/30 09:17:17;;;;;;;1.93;1.83;;;24.50;78.50;;;24.82;55.03;97609.34;4931208;29;20974;-84
2023/07/30 09:19:44;;;;;;;1.83;1.73;;;24.80;78.00;;;24.60;56.26;97615.72;4918887;29;21905;-83
2023/07/30 09:22:11;;;;;;;2.13;1.90;;;24.60;78.50;;;23.80;57.37;97611.59;4927008;29;20469;-79
2023/07/30 09:24:44;;;;;;;1.90;1.80;;;24.10;78.30;;;23.58;57.63;97582.91;4914533;29;20490;-80
2023/07/30 09:27:12;;;;;;;2.00;1.90;;;23.90;78.50;;;23.77;57.63;97618.59;4935177;29;20493;-80
2023/07/30 09:29:39;;;;;;;2.23;1.93;;;23.80;78.40;;;23.38;57.72;97611.75;4934753;29;20453;-77
2023/07/30 09:32:09;;;;;;;2.60;1.80;;;23.60;78.00;;;23.28;58.20;97565.16;4934531;29;20509;-82
2023/07/30 09:34:37;;;;;;;1.60;1.50;;;23.50;78.70;;;23.81;54.83;97596.72;4926163;29;20481;-85
2023/07/30 09:37:05;;;;;;;1.60;1.50;;;23.70;76.50;;;24.52;53.32;97603.50;4926457;29;20906;-81
2023/07/30 09:39:33;;;;;;;1.70;1.60;;;24.00;76.10;;;24.51;51.87;97612.09;4936120;29;20481;-84
2023/07/30 09:42:02;;;;;;;2.30;1.60;;;24.30;74.30;;;24.24;52.82;97609.19;4940208;29;20471;-82
2023/07/30 09:44:29;;;;;;;1.53;1.43;;;24.20;74.60;;;24.93;51.86;97606.25;4934026;29;20469;-81
2023/07/30 09:46:57;;;;;;;1.30;1.20;;;24.60;75.10;;;25.63;49.42;97595.34;4918163;29;20521;-83
2023/07/30 09:49:24;;;;;;;1.70;1.60;;;25.30;73.10;;;25.28;50.87;97592.53;4913952;29;20462;-83
2023/07/30 09:51:53;;;;;;;1.97;1.50;;;25.30;72.90;;;25.37;49.69;97611.91;4930680;29;20478;-82
2023/07/30 09:54:21;;;;;;;2.37;1.27;;;25.30;72.10;;;25.25;49.99;97585.69;4900923;29;20459;-82
2023/07/30 09:56:48;;;;;;;1.30;1.20;;;25.40;72.00;;;24.45;51.42;97556.19;4902440;29;20472;-82
2023/07/30 09:59:15;;;;;;;1.30;1.20;;;25.00;72.20;;;24.70;52.12;97603.56;4921820;29;20462;-80
2023/07/30 10:01:45;;;;;;;1.40;1.30;;;24.80;73.00;;;24.86;52.02;97602.03;4929566;29;20554;-83
2023/07/30 10:04:13;;;;;;;1.30;1.20;;;24.80;73.50;;;24.87;51.75;97598.13;4926180;29;20459;-77
2023/07/30 10:06:52;;;;;;;1.20;1.10;;;24.90;72.90;;;24.67;51.88;97601.44;4930116;29;20483;-81
2023/07/30 10:09:23;;;;;;;1.30;1.20;;;24.70;72.80;;;24.69;52.33;97596.41;4936757;29;20454;-87
2023/07/30 10:11:54;;;;;;;1.30;1.20;;;24.60;73.10;;;24.95;52.36;97592.97;4935064;29;20456;-82
2023/07/30 10:14:25;;;;;;;2.50;1.60;;;24.80;73.60;;;25.09;52.15;97588.09;4931344;29;20465;-80
2023/07/30 10:16:55;;;;;;;1.67;1.57;;;25.20;73.50;;;25.17;51.63;97606.66;4930988;29;20470;-83
2023/07/30 10:19:27;;;;;;;2.23;1.87;;;25.20;72.90;;;25.15;51.87;97592.34;4911513;29;20481;-85